sensor_id;sensor_type;location;lat;lon;timestamp;pressure;altitude;pressure_sealevel;temperature;humidity
71465;BME280;59274;49.874;9.154;2022-12-29T00:02:09;99752.00;;;10.88;79.29
71465;BME280;59274;49.874;9.154;2022-12-29T00:04:35;99741.53;;;10.87;79.05
71465;BME280;59274;49.874;9.154;2022-12-29T00:07:00;99742.69;;;10.82;79.89
71465;BME280;59274;49.874;9.154;2022-12-29T00:09:26;99749.69;;;10.87;79.84
71465;BME280;59274;49.874;9.154;2022-12-29T00:11:51;99750.88;;;10.93;79.23
71465;BME280;59274;49.874;9.154;2022-12-29T00:14:17;99741.91;;;10.96;79.56
71465;BME280;59274;49.874;9.154;2022-12-29T00:17:02;99741.94;;;11.03;78.62
71465;BME280;59274;49.874;9.154;2022-12-29T00:19:27;99737.66;;;11.06;78.24
71465;BME280;59274;49.874;9.154;2022-12-29T00:22:13;99739.22;;;11.28;77.49
71465;BME280;59274;49.874;9.154;2022-12-29T00:24:57;99735.72;;;11.34;77.50
71465;BME280;59274;49.874;9.154;2022-12-29T00:27:45;99733.78;;;11.31;78.41
71465;BME280;59274;49.874;9.154;2022-12-29T00:30:29;99741.56;;;11.33;77.77
71465;BME280;59274;49.874;9.154;2022-12-29T00:33:18;99743.09;;;11.37;78.16
71465;BME280;59274;49.874;9.154;2022-12-29T00:36:18;99731.84;;;11.35;78.79
71465;BME280;59274;49.874;9.154;2022-12-29T00:38:57;99736.50;;;11.46;78.26
71465;BME280;59274;49.874;9.154;2022-12-29T00:41:43;99726.78;;;11.48;78.10
71465;BME280;59274;49.874;9.154;2022-12-29T00:44:26;99738.81;;;11.54;78.36
71465;BME280;59274;49.874;9.154;2022-12-29T00:46:52;99741.53;;;11.58;77.96
71465;BME280;59274;49.874;9.154;2022-12-29T00:49:17;99741.53;;;11.54;78.79
71465;BME280;59274;49.874;9.154;2022-12-29T00:52:06;99734.53;;;11.64;77.83
71465;BME280;59274;49.874;9.154;2022-12-29T00:54:34;99755.16;;;11.58;79.63
71465;BME280;59274;49.874;9.154;2022-12-29T00:57:01;99751.66;;;11.50;79.68
71465;BME280;59274;49.874;9.154;2022-12-29T00:59:30;99755.16;;;11.47;80.79
71465;BME280;59274;49.874;9.154;2022-12-29T01:01:56;99753.22;;;11.41;82.03
71465;BME280;59274;49.874;9.154;2022-12-29T01:04:23;99748.56;;;11.27;83.09
71465;BME280;59274;49.874;9.154;2022-12-29T01:06:49;99738.44;;;11.24;83.49
71465;BME280;59274;49.874;9.154;2022-12-29T01:09:16;99753.19;;;11.23;84.07
71465;BME280;59274;49.874;9.154;2022-12-29T01:12:00;99746.59;;;11.06;86.40
71465;BME280;59274;49.874;9.154;2022-12-29T01:14:26;99751.63;;;10.90;87.66
71465;BME280;59274;49.874;9.154;2022-12-29T01:16:52;99755.88;;;10.84;88.63
71465;BME280;59274;49.874;9.154;2022-12-29T01:19:18;99756.63;;;10.81;88.70
71465;BME280;59274;49.874;9.154;2022-12-29T01:21:44;99744.59;;;10.75;89.60
71465;BME280;59274;49.874;9.154;2022-12-29T01:24:10;99746.91;;;10.51;93.25
71465;BME280;59274;49.874;9.154;2022-12-29T01:26:35;99750.75;;;10.50;92.90
71465;BME280;59274;49.874;9.154;2022-12-29T01:29:01;99753.81;;;10.45;92.75
71465;BME280;59274;49.874;9.154;2022-12-29T01:31:26;99747.63;;;10.45;93.64
71465;BME280;59274;49.874;9.154;2022-12-29T01:33:52;99739.91;;;10.50;92.49
71465;BME280;59274;49.874;9.154;2022-12-29T01:36:19;99744.94;;;10.48;92.85
71465;BME280;59274;49.874;9.154;2022-12-29T01:38:45;99740.25;;;10.45;92.58
71465;BME280;59274;49.874;9.154;2022-12-29T01:41:12;99732.09;;;10.45;93.11
71465;BME280;59274;49.874;9.154;2022-12-29T01:46:31;99738.31;;;10.35;94.58
71465;BME280;59274;49.874;9.154;2022-12-29T01:49:04;99722.78;;;10.36;95.09
71465;BME280;59274;49.874;9.154;2022-12-29T01:51:54;99718.91;;;10.30;94.55
71465;BME280;59274;49.874;9.154;2022-12-29T01:54:48;99718.91;;;10.33;95.34
71465;BME280;59274;49.874;9.154;2022-12-29T01:57:23;99713.44;;;10.26;95.79
71465;BME280;59274;49.874;9.154;2022-12-29T01:59:54;99718.09;;;10.26;95.51
71465;BME280;59274;49.874;9.154;2022-12-29T02:02:21;99711.88;;;10.25;96.05
71465;BME280;59274;49.874;9.154;2022-12-29T02:04:47;99703.75;;;10.25;96.41
71465;BME280;59274;49.874;9.154;2022-12-29T02:07:21;99713.75;;;10.14;96.83
71465;BME280;59274;49.874;9.154;2022-12-29T02:09:48;99710.28;;;10.13;96.55
71465;BME280;59274;49.874;9.154;2022-12-29T02:12:14;99708.78;;;10.23;96.24
71465;BME280;59274;49.874;9.154;2022-12-29T02:14:41;99708.03;;;10.26;96.91
71465;BME280;59274;49.874;9.154;2022-12-29T02:28:53;99693.34;;;10.52;93.60
71465;BME280;59274;49.874;9.154;2022-12-29T02:31:21;99702.25;;;10.52;92.99
71465;BME280;59274;49.874;9.154;2022-12-29T02:34:13;99701.91;;;10.57;92.05
71465;BME280;59274;49.874;9.154;2022-12-29T02:36:54;99713.13;;;10.52;92.68
71465;BME280;59274;49.874;9.154;2022-12-29T02:47:22;99699.59;;;10.74;90.35
71465;BME280;59274;49.874;9.154;2022-12-29T02:52:35;99700.78;;;10.94;90.12
71465;BME280;59274;49.874;9.154;2022-12-29T02:55:03;99695.34;;;10.80;90.96
71465;BME280;59274;49.874;9.154;2022-12-29T02:57:32;99700.75;;;10.76;90.77
71465;BME280;59274;49.874;9.154;2022-12-29T03:00:06;99698.06;;;10.83;89.69
71465;BME280;59274;49.874;9.154;2022-12-29T03:03:01;99694.19;;;10.95;89.20
71465;BME280;59274;49.874;9.154;2022-12-29T03:11:08;99694.56;;;10.90;89.71
71465;BME280;59274;49.874;9.154;2022-12-29T03:14:26;99694.97;;;10.85;90.04
71465;BME280;59274;49.874;9.154;2022-12-29T03:17:45;99694.94;;;10.81;90.33
71465;BME280;59274;49.874;9.154;2022-12-29T03:20:17;99676.72;;;10.78;91.36
71465;BME280;59274;49.874;9.154;2022-12-29T03:22:47;99677.50;;;10.82;90.19
71465;BME280;59274;49.874;9.154;2022-12-29T03:25:21;99685.66;;;10.86;90.71
71465;BME280;59274;49.874;9.154;2022-12-29T03:27:57;99688.38;;;10.79;91.23
71465;BME280;59274;49.874;9.154;2022-12-29T03:30:26;99677.09;;;10.87;90.33
71465;BME280;59274;49.874;9.154;2022-12-29T03:32:59;99683.69;;;10.76;91.68
71465;BME280;59274;49.874;9.154;2022-12-29T03:35:29;99683.69;;;10.83;91.30
71465;BME280;59274;49.874;9.154;2022-12-29T03:38:02;99682.16;;;10.85;91.94
71465;BME280;59274;49.874;9.154;2022-12-29T03:40:28;99677.50;;;10.82;91.47
71465;BME280;59274;49.874;9.154;2022-12-29T03:42:56;99676.72;;;10.92;91.96
71465;BME280;59274;49.874;9.154;2022-12-29T03:45:22;99691.09;;;10.79;92.46
71465;BME280;59274;49.874;9.154;2022-12-29T03:47:48;99674.38;;;10.87;92.17
71465;BME280;59274;49.874;9.154;2022-12-29T03:50:14;99670.50;;;10.85;92.16
71465;BME280;59274;49.874;9.154;2022-12-29T03:52:39;99661.56;;;10.74;92.70
71465;BME280;59274;49.874;9.154;2022-12-29T03:55:05;99663.91;;;10.72;92.70
71465;BME280;59274;49.874;9.154;2022-12-29T03:57:31;99635.59;;;10.73;92.33
71465;BME280;59274;49.874;9.154;2022-12-29T03:59:56;99653.44;;;10.91;90.34
71465;BME280;59274;49.874;9.154;2022-12-29T04:02:22;99648.38;;;10.97;90.34
71465;BME280;59274;49.874;9.154;2022-12-29T04:04:49;99654.63;;;10.94;90.44
71465;BME280;59274;49.874;9.154;2022-12-29T04:07:14;99647.22;;;10.91;91.13
71465;BME280;59274;49.874;9.154;2022-12-29T04:09:40;99642.97;;;10.86;90.66
71465;BME280;59274;49.874;9.154;2022-12-29T04:12:05;99629.38;;;10.97;89.97
71465;BME280;59274;49.874;9.154;2022-12-29T04:14:31;99634.03;;;11.00;89.00
71465;BME280;59274;49.874;9.154;2022-12-29T04:16:56;99633.25;;;10.89;90.68
71465;BME280;59274;49.874;9.154;2022-12-29T04:19:21;99624.31;;;10.81;91.11
71465;BME280;59274;49.874;9.154;2022-12-29T04:21:47;99625.50;;;10.91;89.61
71465;BME280;59274;49.874;9.154;2022-12-29T04:24:12;99618.91;;;10.85;90.08
71465;BME280;59274;49.874;9.154;2022-12-29T04:26:38;99625.50;;;10.84;89.53
71465;BME280;59274;49.874;9.154;2022-12-29T04:29:03;99628.22;;;10.91;88.98
71465;BME280;59274;49.874;9.154;2022-12-29T04:31:29;99622.38;;;10.96;88.65
71465;BME280;59274;49.874;9.154;2022-12-29T04:33:54;99619.66;;;10.99;88.40
71465;BME280;59274;49.874;9.154;2022-12-29T04:36:22;99621.22;;;11.01;88.29
71465;BME280;59274;49.874;9.154;2022-12-29T04:38:48;99617.31;;;11.02;87.70
71465;BME280;59274;49.874;9.154;2022-12-29T04:41:13;99617.31;;;11.02;87.45
71465;BME280;59274;49.874;9.154;2022-12-29T04:43:38;99616.94;;;10.99;87.29
71465;BME280;59274;49.874;9.154;2022-12-29T04:46:04;99627.03;;;10.99;87.25
71465;BME280;59274;49.874;9.154;2022-12-29T04:48:29;99608.81;;;10.99;87.27
71465;BME280;59274;49.874;9.154;2022-12-29T04:50:55;99621.19;;;11.11;86.17
71465;BME280;59274;49.874;9.154;2022-12-29T04:53:20;99618.50;;;11.08;86.81
71465;BME280;59274;49.874;9.154;2022-12-29T04:55:50;99613.44;;;11.06;87.15
71465;BME280;59274;49.874;9.154;2022-12-29T04:58:17;99609.94;;;11.06;87.41
71465;BME280;59274;49.874;9.154;2022-12-29T05:00:42;99606.88;;;11.00;86.71
71465;BME280;59274;49.874;9.154;2022-12-29T05:03:07;99618.88;;;11.06;85.39
71465;BME280;59274;49.874;9.154;2022-12-29T05:05:33;99620.81;;;11.13;86.39
71465;BME280;59274;49.874;9.154;2022-12-29T05:07:58;99625.06;;;11.10;86.01
71465;BME280;59274;49.874;9.154;2022-12-29T05:10:24;99624.28;;;11.17;85.30
71465;BME280;59274;49.874;9.154;2022-12-29T05:12:49;99625.88;;;11.14;86.03
71465;BME280;59274;49.874;9.154;2022-12-29T05:15:14;99636.75;;;11.07;86.27
71465;BME280;59274;49.874;9.154;2022-12-29T05:17:40;99629.38;;;11.08;85.78
71465;BME280;59274;49.874;9.154;2022-12-29T05:20:06;99623.16;;;11.14;86.33
71465;BME280;59274;49.874;9.154;2022-12-29T05:22:31;99618.47;;;11.11;85.90
71465;BME280;59274;49.874;9.154;2022-12-29T05:24:57;99605.28;;;11.20;85.35
71465;BME280;59274;49.874;9.154;2022-12-29T05:27:25;99617.72;;;11.14;85.12
71465;BME280;59274;49.874;9.154;2022-12-29T05:29:50;99621.59;;;11.10;85.98
71465;BME280;59274;49.874;9.154;2022-12-29T05:32:16;99623.16;;;11.07;86.63
71465;BME280;59274;49.874;9.154;2022-12-29T05:34:41;99625.88;;;11.04;86.40
71465;BME280;59274;49.874;9.154;2022-12-29T05:37:07;99616.56;;;11.05;86.64
71465;BME280;59274;49.874;9.154;2022-12-29T05:39:32;99623.91;;;11.11;86.17
71465;BME280;59274;49.874;9.154;2022-12-29T05:41:57;99624.69;;;11.12;86.27
71465;BME280;59274;49.874;9.154;2022-12-29T05:44:23;99616.16;;;11.10;86.29
71465;BME280;59274;49.874;9.154;2022-12-29T05:46:48;99628.94;;;11.09;86.07
71465;BME280;59274;49.874;9.154;2022-12-29T05:49:14;99622.75;;;11.09;85.76
71465;BME280;59274;49.874;9.154;2022-12-29T05:51:39;99622.75;;;11.12;85.47
71465;BME280;59274;49.874;9.154;2022-12-29T05:54:05;99614.97;;;11.18;84.90
71465;BME280;59274;49.874;9.154;2022-12-29T05:56:30;99630.50;;;11.21;84.26
71465;BME280;59274;49.874;9.154;2022-12-29T05:58:55;99616.91;;;11.24;83.51
71465;BME280;59274;49.874;9.154;2022-12-29T06:01:21;99616.50;;;11.33;83.44
71465;BME280;59274;49.874;9.154;2022-12-29T06:03:46;99613.41;;;11.27;83.86
71465;BME280;59274;49.874;9.154;2022-12-29T06:06:12;99623.50;;;11.23;83.82
71465;BME280;59274;49.874;9.154;2022-12-29T06:08:37;99613.78;;;11.33;83.02
71465;BME280;59274;49.874;9.154;2022-12-29T06:11:03;99608.69;;;11.46;82.34
71465;BME280;59274;49.874;9.154;2022-12-29T06:13:28;99611.41;;;11.46;82.25
71465;BME280;59274;49.874;9.154;2022-12-29T06:15:54;99618.00;;;11.55;81.45
71465;BME280;59274;49.874;9.154;2022-12-29T06:18:19;99623.44;;;11.52;81.69
71465;BME280;59274;49.874;9.154;2022-12-29T06:20:44;99611.78;;;11.51;81.97
71465;BME280;59274;49.874;9.154;2022-12-29T06:23:10;99612.91;;;11.68;80.05
71465;BME280;59274;49.874;9.154;2022-12-29T06:25:37;99623.03;;;11.64;80.08
71465;BME280;59274;49.874;9.154;2022-12-29T06:28:02;99628.47;;;11.60;81.33
71465;BME280;59274;49.874;9.154;2022-12-29T06:30:28;99625.00;;;11.56;81.24
71465;BME280;59274;49.874;9.154;2022-12-29T06:32:54;99610.59;;;11.63;81.02
71465;BME280;59274;49.874;9.154;2022-12-29T06:35:20;99619.53;;;11.63;81.63
71465;BME280;59274;49.874;9.154;2022-12-29T06:37:47;99640.13;;;11.54;81.33
71465;BME280;59274;49.874;9.154;2022-12-29T06:40:13;99628.88;;;11.52;81.86
71465;BME280;59274;49.874;9.154;2022-12-29T06:42:38;99640.53;;;11.52;82.05
71465;BME280;59274;49.874;9.154;2022-12-29T06:45:04;99632.78;;;11.51;81.93
71465;BME280;59274;49.874;9.154;2022-12-29T06:47:29;99631.59;;;11.55;81.59
71465;BME280;59274;49.874;9.154;2022-12-29T06:49:55;99628.84;;;11.59;81.93
71465;BME280;59274;49.874;9.154;2022-12-29T06:52:20;99616.41;;;11.65;81.35
71465;BME280;59274;49.874;9.154;2022-12-29T06:54:46;99636.97;;;11.66;81.76
71465;BME280;59274;49.874;9.154;2022-12-29T06:57:11;99638.94;;;11.65;81.52
71465;BME280;59274;49.874;9.154;2022-12-29T06:59:36;99623.38;;;11.66;81.02
71465;BME280;59274;49.874;9.154;2022-12-29T07:02:02;99629.63;;;11.63;81.41
71465;BME280;59274;49.874;9.154;2022-12-29T07:04:28;99625.75;;;11.64;81.85
71465;BME280;59274;49.874;9.154;2022-12-29T07:06:54;99613.69;;;11.65;80.86
71465;BME280;59274;49.874;9.154;2022-12-29T07:09:20;99615.25;;;11.62;81.57
71465;BME280;59274;49.874;9.154;2022-12-29T07:11:45;99621.09;;;11.57;81.49
71465;BME280;59274;49.874;9.154;2022-12-29T07:14:11;99617.63;;;11.46;82.00
71465;BME280;59274;49.874;9.154;2022-12-29T07:16:36;99616.47;;;11.44;82.33
71465;BME280;59274;49.874;9.154;2022-12-29T07:19:02;99619.19;;;11.51;81.27
71465;BME280;59274;49.874;9.154;2022-12-29T07:21:28;99605.59;;;11.51;81.40
71465;BME280;59274;49.874;9.154;2022-12-29T07:23:54;99614.44;;;11.65;80.19
71465;BME280;59274;49.874;9.154;2022-12-29T07:26:19;99619.91;;;11.58;81.33
71465;BME280;59274;49.874;9.154;2022-12-29T07:28:45;99617.19;;;11.58;80.79
71465;BME280;59274;49.874;9.154;2022-12-29T07:31:15;99620.69;;;11.62;80.32
71465;BME280;59274;49.874;9.154;2022-12-29T07:33:42;99602.44;;;11.59;80.91
71465;BME280;59274;49.874;9.154;2022-12-29T07:36:08;99622.25;;;11.63;80.35
71465;BME280;59274;49.874;9.154;2022-12-29T07:38:34;99611.75;;;11.62;79.87
71465;BME280;59274;49.874;9.154;2022-12-29T07:40:59;99619.13;;;11.65;80.24
71465;BME280;59274;49.874;9.154;2022-12-29T07:43:26;99623.41;;;11.59;80.73
71465;BME280;59274;49.874;9.154;2022-12-29T07:45:52;99624.97;;;11.60;81.47
71465;BME280;59274;49.874;9.154;2022-12-29T07:48:17;99622.66;;;11.51;82.77
71465;BME280;59274;49.874;9.154;2022-12-29T07:50:43;99632.38;;;11.49;81.55
71465;BME280;59274;49.874;9.154;2022-12-29T07:53:08;99628.13;;;11.44;83.07
71465;BME280;59274;49.874;9.154;2022-12-29T07:55:34;99627.72;;;11.46;82.94
71465;BME280;59274;49.874;9.154;2022-12-29T07:57:59;99630.47;;;11.42;83.08
71465;BME280;59274;49.874;9.154;2022-12-29T08:00:24;99636.66;;;11.46;81.54
71465;BME280;59274;49.874;9.154;2022-12-29T08:02:50;99628.09;;;11.51;81.47
71465;BME280;59274;49.874;9.154;2022-12-29T08:05:16;99620.72;;;11.52;82.18
71465;BME280;59274;49.874;9.154;2022-12-29T08:07:45;99624.22;;;11.56;81.27
71465;BME280;59274;49.874;9.154;2022-12-29T08:10:11;99642.81;;;11.71;78.77
71465;BME280;59274;49.874;9.154;2022-12-29T08:12:38;99644.34;;;11.72;80.57
71465;BME280;59274;49.874;9.154;2022-12-29T08:15:04;99647.50;;;11.60;81.50
71465;BME280;59274;49.874;9.154;2022-12-29T08:17:30;99648.69;;;11.56;81.81
71465;BME280;59274;49.874;9.154;2022-12-29T08:19:55;99641.66;;;11.69;81.15
71465;BME280;59274;49.874;9.154;2022-12-29T08:22:21;99640.47;;;11.66;81.41
71465;BME280;59274;49.874;9.154;2022-12-29T08:24:46;99651.03;;;11.57;82.08
71465;BME280;59274;49.874;9.154;2022-12-29T08:27:11;99649.84;;;11.55;82.53
71465;BME280;59274;49.874;9.154;2022-12-29T08:29:37;99647.91;;;11.45;82.12
71465;BME280;59274;49.874;9.154;2022-12-29T08:32:02;99649.84;;;11.55;81.65
71465;BME280;59274;49.874;9.154;2022-12-29T08:34:30;99643.59;;;11.75;80.96
71465;BME280;59274;49.874;9.154;2022-12-29T08:36:56;99645.91;;;11.66;82.62
71465;BME280;59274;49.874;9.154;2022-12-29T08:39:21;99647.53;;;11.57;82.94
71465;BME280;59274;49.874;9.154;2022-12-29T08:41:47;99646.72;;;11.60;81.28
71465;BME280;59274;49.874;9.154;2022-12-29T08:44:12;99638.56;;;11.60;81.90
71465;BME280;59274;49.874;9.154;2022-12-29T08:46:38;99625.38;;;11.55;82.41
71465;BME280;59274;49.874;9.154;2022-12-29T08:49:03;99634.31;;;11.45;81.74
71465;BME280;59274;49.874;9.154;2022-12-29T08:51:28;99654.88;;;11.70;78.31
71465;BME280;59274;49.874;9.154;2022-12-29T08:53:54;99641.97;;;11.96;76.31
71465;BME280;59274;49.874;9.154;2022-12-29T08:56:19;99644.25;;;12.04;76.73
71465;BME280;59274;49.874;9.154;2022-12-29T08:58:44;99649.28;;;12.09;76.49
71465;BME280;59274;49.874;9.154;2022-12-29T09:01:10;99661.25;;;12.23;74.70
71465;BME280;59274;49.874;9.154;2022-12-29T09:03:36;99652.69;;;12.28;74.56
71465;BME280;59274;49.874;9.154;2022-12-29T09:06:01;99659.34;;;12.20;75.25
71465;BME280;59274;49.874;9.154;2022-12-29T09:08:27;99654.25;;;12.29;73.99
71465;BME280;59274;49.874;9.154;2022-12-29T09:10:52;99675.19;;;12.39;73.51
71465;BME280;59274;49.874;9.154;2022-12-29T09:13:18;99656.38;;;12.59;72.53
71465;BME280;59274;49.874;9.154;2022-12-29T09:15:43;99652.47;;;12.60;72.39
71465;BME280;59274;49.874;9.154;2022-12-29T09:18:10;99645.44;;;12.66;72.34
71465;BME280;59274;49.874;9.154;2022-12-29T09:20:36;99658.59;;;12.78;71.31
71465;BME280;59274;49.874;9.154;2022-12-29T09:23:02;99665.91;;;12.88;71.40
71465;BME280;59274;49.874;9.154;2022-12-29T09:25:28;99666.72;;;12.85;71.29
71465;BME280;59274;49.874;9.154;2022-12-29T09:27:54;99659.31;;;12.85;71.50
71465;BME280;59274;49.874;9.154;2022-12-29T09:30:21;99669.47;;;12.81;72.62
71465;BME280;59274;49.874;9.154;2022-12-29T09:32:47;99667.94;;;12.77;72.42
71465;BME280;59274;49.874;9.154;2022-12-29T09:35:14;99671.78;;;12.79;72.08
71465;BME280;59274;49.874;9.154;2022-12-29T09:37:40;99670.56;;;12.87;70.97
71465;BME280;59274;49.874;9.154;2022-12-29T09:40:09;99666.66;;;12.92;70.49
71465;BME280;59274;49.874;9.154;2022-12-29T09:43:05;99665.44;;;12.97;71.16
71465;BME280;59274;49.874;9.154;2022-12-29T09:45:36;99679.88;;;12.93;70.51
71465;BME280;59274;49.874;9.154;2022-12-29T09:48:11;99674.78;;;12.95;70.54
71465;BME280;59274;49.874;9.154;2022-12-29T09:50:39;99683.34;;;12.98;70.42
71465;BME280;59274;49.874;9.154;2022-12-29T09:53:15;99682.19;;;12.95;71.23
71465;BME280;59274;49.874;9.154;2022-12-29T09:55:49;99672.91;;;12.89;71.60
71465;BME280;59274;49.874;9.154;2022-12-29T09:58:35;99678.41;;;12.85;72.02
71465;BME280;59274;49.874;9.154;2022-12-29T10:01:05;99683.47;;;12.80;72.05
71465;BME280;59274;49.874;9.154;2022-12-29T10:03:40;99685.03;;;12.81;72.32
71465;BME280;59274;49.874;9.154;2022-12-29T10:06:14;99672.63;;;12.76;72.39
71465;BME280;59274;49.874;9.154;2022-12-29T10:08:56;99673.78;;;12.75;72.77
71465;BME280;59274;49.874;9.154;2022-12-29T10:14:27;99670.28;;;12.78;72.11
71465;BME280;59274;49.874;9.154;2022-12-29T10:19:53;99686.19;;;12.80;72.27
71465;BME280;59274;49.874;9.154;2022-12-29T10:25:02;99676.13;;;12.73;72.52
71465;BME280;59274;49.874;9.154;2022-12-29T10:27:36;99681.22;;;12.68;73.44
71465;BME280;59274;49.874;9.154;2022-12-29T10:30:03;99687.47;;;12.68;72.68
71465;BME280;59274;49.874;9.154;2022-12-29T10:32:38;99673.00;;;12.78;72.38
71465;BME280;59274;49.874;9.154;2022-12-29T10:35:14;99674.50;;;12.83;73.24
71465;BME280;59274;49.874;9.154;2022-12-29T10:38:01;99668.66;;;12.84;72.84
71465;BME280;59274;49.874;9.154;2022-12-29T10:40:33;99679.91;;;12.86;72.95
71465;BME280;59274;49.874;9.154;2022-12-29T10:45:45;99672.91;;;12.89;73.93
71465;BME280;59274;49.874;9.154;2022-12-29T10:48:21;99675.66;;;12.85;72.75
71465;BME280;59274;49.874;9.154;2022-12-29T10:50:48;99678.41;;;12.85;72.70
71465;BME280;59274;49.874;9.154;2022-12-29T10:53:23;99682.28;;;12.84;72.91
71465;BME280;59274;49.874;9.154;2022-12-29T10:55:50;99688.94;;;12.80;73.29
71465;BME280;59274;49.874;9.154;2022-12-29T10:58:15;99690.88;;;12.79;73.31
71465;BME280;59274;49.874;9.154;2022-12-29T11:00:43;99697.91;;;12.77;73.23
71465;BME280;59274;49.874;9.154;2022-12-29T11:06:24;99687.13;;;12.63;73.55
71465;BME280;59274;49.874;9.154;2022-12-29T11:08:55;99690.22;;;12.61;74.56
71465;BME280;59274;49.874;9.154;2022-12-29T11:11:28;99707.00;;;12.52;76.50
71465;BME280;59274;49.874;9.154;2022-12-29T11:14:02;99717.56;;;12.47;77.67
71465;BME280;59274;49.874;9.154;2022-12-29T11:16:33;99712.19;;;12.33;80.89
71465;BME280;59274;49.874;9.154;2022-12-29T11:19:00;99731.75;;;12.06;84.71
71465;BME280;59274;49.874;9.154;2022-12-29T11:21:37;99728.31;;;11.60;91.16
71465;BME280;59274;49.874;9.154;2022-12-29T11:24:29;99739.97;;;10.89;96.22
71465;BME280;59274;49.874;9.154;2022-12-29T11:27:17;99750.00;;;10.50;99.44
71465;BME280;59274;49.874;9.154;2022-12-29T11:29:45;99749.03;;;10.14;100.00
71465;BME280;59274;49.874;9.154;2022-12-29T11:32:22;99769.47;;;9.97;100.00
71465;BME280;59274;49.874;9.154;2022-12-29T11:34:49;99755.09;;;9.90;100.00
71465;BME280;59274;49.874;9.154;2022-12-29T11:37:20;99745.34;;;9.78;100.00
71465;BME280;59274;49.874;9.154;2022-12-29T11:39:56;99748.41;;;9.69;100.00
71465;BME280;59274;49.874;9.154;2022-12-29T11:42:36;99737.94;;;9.68;100.00
71465;BME280;59274;49.874;9.154;2022-12-29T11:45:09;99742.13;;;9.58;100.00
71465;BME280;59274;49.874;9.154;2022-12-29T11:47:42;99761.78;;;9.45;100.00
71465;BME280;59274;49.874;9.154;2022-12-29T11:50:17;99759.84;;;9.45;100.00
71465;BME280;59274;49.874;9.154;2022-12-29T11:52:43;99756.69;;;9.36;100.00
71465;BME280;59274;49.874;9.154;2022-12-29T11:55:18;99752.84;;;9.37;100.00
71465;BME280;59274;49.874;9.154;2022-12-29T11:57:45;99736.63;;;9.48;100.00
71465;BME280;59274;49.874;9.154;2022-12-29T12:00:22;99730.09;;;9.56;100.00
71465;BME280;59274;49.874;9.154;2022-12-29T12:03:06;99736.34;;;9.63;100.00
71465;BME280;59274;49.874;9.154;2022-12-29T12:08:33;99732.88;;;9.63;100.00
71465;BME280;59274;49.874;9.154;2022-12-29T12:11:06;99742.63;;;9.74;100.00
71465;BME280;59274;49.874;9.154;2022-12-29T12:14:23;99743.81;;;9.80;100.00
71465;BME280;59274;49.874;9.154;2022-12-29T12:16:25;99739.72;;;10.08;100.00
71465;BME280;59274;49.874;9.154;2022-12-29T12:18:58;99745.69;;;10.42;100.00
71465;BME280;59274;49.874;9.154;2022-12-29T12:21:39;99733.34;;;10.62;100.00
71465;BME280;59274;49.874;9.154;2022-12-29T12:32:22;99755.84;;;10.63;100.00
71465;BME280;59274;49.874;9.154;2022-12-29T12:34:50;99770.16;;;10.59;100.00
71465;BME280;59274;49.874;9.154;2022-12-29T12:46:19;99740.75;;;10.97;97.88
71465;BME280;59274;49.874;9.154;2022-12-29T12:49:02;99730.69;;;11.08;94.98
71465;BME280;59274;49.874;9.154;2022-12-29T12:54:19;99740.78;;;11.11;95.25
71465;BME280;59274;49.874;9.154;2022-12-29T13:00:38;99749.31;;;11.20;93.25
71465;BME280;59274;49.874;9.154;2022-12-29T13:05:47;99739.22;;;11.14;93.78
71465;BME280;59274;49.874;9.154;2022-12-29T13:08:37;99740.00;;;11.32;94.16
71465;BME280;59274;49.874;9.154;2022-12-29T13:11:22;99734.94;;;11.23;92.37
71465;BME280;59274;49.874;9.154;2022-12-29T13:17:02;99735.72;;;10.99;93.73
71465;BME280;59274;49.874;9.154;2022-12-29T13:19:41;99728.72;;;10.91;94.99
71465;BME280;59274;49.874;9.154;2022-12-29T13:25:14;99731.84;;;10.86;94.64
71465;BME280;59274;49.874;9.154;2022-12-29T13:27:56;99732.19;;;10.81;95.99
71465;BME280;59274;49.874;9.154;2022-12-29T13:33:40;99732.19;;;10.74;92.66
71465;BME280;59274;49.874;9.154;2022-12-29T13:36:22;99731.41;;;10.73;92.89
71465;BME280;59274;49.874;9.154;2022-12-29T13:39:03;99734.13;;;10.73;92.31
71465;BME280;59274;49.874;9.154;2022-12-29T13:41:39;99731.44;;;10.77;91.60
71465;BME280;59274;49.874;9.154;2022-12-29T13:44:07;99732.19;;;10.81;91.46
71465;BME280;59274;49.874;9.154;2022-12-29T13:46:42;99733.75;;;10.82;93.39
71465;BME280;59274;49.874;9.154;2022-12-29T13:49:17;99725.22;;;10.80;94.25
71465;BME280;59274;49.874;9.154;2022-12-29T13:51:58;99727.16;;;10.83;95.09
71465;BME280;59274;49.874;9.154;2022-12-29T13:56:59;99736.09;;;10.87;95.13
71465;BME280;59274;49.874;9.154;2022-12-29T14:07:45;99728.31;;;10.75;95.30
71465;BME280;59274;49.874;9.154;2022-12-29T14:10:34;99725.19;;;10.69;94.28
71465;BME280;59274;49.874;9.154;2022-12-29T14:13:21;99722.09;;;10.71;94.26
71465;BME280;59274;49.874;9.154;2022-12-29T14:15:53;99728.28;;;10.60;95.73
71465;BME280;59274;49.874;9.154;2022-12-29T14:18:25;99738.75;;;10.55;95.49
71465;BME280;59274;49.874;9.154;2022-12-29T14:21:02;99730.59;;;10.51;96.13
71465;BME280;59274;49.874;9.154;2022-12-29T14:31:04;99746.97;;;10.80;86.36
71465;BME280;59274;49.874;9.154;2022-12-29T14:33:32;99744.59;;;10.68;89.87
71465;BME280;59274;49.874;9.154;2022-12-29T14:36:36;99759.31;;;10.67;86.42
71465;BME280;59274;49.874;9.154;2022-12-29T14:39:02;99753.06;;;10.52;87.43
71465;BME280;59274;49.874;9.154;2022-12-29T14:41:49;99770.13;;;10.45;89.32
71465;BME280;59274;49.874;9.154;2022-12-29T14:44:20;99775.94;;;10.40;88.26
71465;BME280;59274;49.874;9.154;2022-12-29T14:46:54;99775.91;;;10.33;90.82
71465;BME280;59274;49.874;9.154;2022-12-29T14:49:28;99779.31;;;10.23;92.88
71465;BME280;59274;49.874;9.154;2022-12-29T14:52:14;99756.84;;;10.19;96.69
71465;BME280;59274;49.874;9.154;2022-12-29T14:55:28;99755.56;;;9.99;96.31
71465;BME280;59274;49.874;9.154;2022-12-29T14:57:50;99773.31;;;9.86;96.20
71465;BME280;59274;49.874;9.154;2022-12-29T15:00:22;99781.41;;;9.78;96.96